createdAt,value
2022-08-18T00:00:27.382Z,40.70
2022-08-18T00:01:27.399Z,41.00
2022-08-18T00:02:30.038Z,41.00
2022-08-18T00:03:56.366Z,39.60
2022-08-18T00:04:35.789Z,37.00
2022-08-18T00:05:27.328Z,39.30
2022-08-18T00:06:28.275Z,43.00
2022-08-18T00:07:27.312Z,42.40
2022-08-18T00:08:27.303Z,40.80
2022-08-18T00:09:32.008Z,40.10
2022-08-18T00:10:27.279Z,41.60
2022-08-18T00:11:27.253Z,40.10
2022-08-18T00:12:27.275Z,43.70
2022-08-18T00:13:27.247Z,42.90
2022-08-18T00:14:27.239Z,42.70
2022-08-18T00:15:27.246Z,43.40
2022-08-18T00:16:27.204Z,42.90
2022-08-18T00:17:27.216Z,43.40
2022-08-18T00:18:27.184Z,45.00
2022-08-18T00:19:45.746Z,42.60
2022-08-18T00:20:27.165Z,43.10
2022-08-18T00:21:27.173Z,43.40
2022-08-18T00:22:27.176Z,41.20
2022-08-18T00:23:27.132Z,42.10
2022-08-18T00:24:27.119Z,43.80
2022-08-18T00:25:27.123Z,42.80
2022-08-18T00:26:27.114Z,42.90
2022-08-18T00:27:28.634Z,43.20
2022-08-18T00:28:27.099Z,42.50
2022-08-18T00:29:27.055Z,43.00
2022-08-18T00:30:27.074Z,42.80
2022-08-18T00:31:27.036Z,43.40
2022-08-18T00:32:27.028Z,42.80
2022-08-18T00:33:27.018Z,43.00
2022-08-18T00:34:27.003Z,43.40
2022-08-18T00:35:28.780Z,43.70
2022-08-18T00:36:26.989Z,43.40
2022-08-18T00:37:27.010Z,43.40
2022-08-18T00:38:26.994Z,43.20
2022-08-18T00:39:27.065Z,42.10
2022-08-18T00:40:26.980Z,42.50
2022-08-18T00:41:26.930Z,44.30
2022-08-18T00:42:30.679Z,42.70
2022-08-18T00:43:26.915Z,43.60
2022-08-18T00:44:26.905Z,43.20
2022-08-18T00:45:26.929Z,43.10
2022-08-18T00:48:52.458Z,41.30
2022-08-18T00:49:53.444Z,46.40
2022-08-18T00:50:53.410Z,45.40
2022-08-18T00:51:53.396Z,48.10
2022-08-18T00:52:53.392Z,47.60
2022-08-18T00:53:53.410Z,49.30
2022-08-18T00:54:53.432Z,49.90
2022-08-18T00:55:54.424Z,51.30
2022-08-18T00:56:53.360Z,49.90
2022-08-18T00:57:53.630Z,48.30
2022-08-18T00:58:53.338Z,49.80
2022-08-18T00:59:53.333Z,49.60
2022-08-18T01:00:53.392Z,47.50
2022-08-18T01:01:53.310Z,50.40
2022-08-18T01:02:53.283Z,49.50
2022-08-18T01:03:53.271Z,49.80
2022-08-18T01:04:53.260Z,50.60
2022-08-18T01:05:53.258Z,49.50
2022-08-18T01:06:53.257Z,47.00
2022-08-18T01:07:53.527Z,49.30
2022-08-18T01:08:53.249Z,50.90
2022-08-18T01:09:53.205Z,49.30
2022-08-18T01:10:53.200Z,48.80
2022-08-18T01:11:53.204Z,47.80
2022-08-18T01:12:53.196Z,49.30
2022-08-18T01:13:53.166Z,48.70
2022-08-18T01:14:53.149Z,49.60
2022-08-18T01:15:53.141Z,49.70
2022-08-18T01:16:55.321Z,51.00
2022-08-18T01:17:53.287Z,50.00
2022-08-18T01:18:53.104Z,52.40
2022-08-18T01:19:53.090Z,51.10
2022-08-18T01:20:53.084Z,51.80
2022-08-18T01:21:53.088Z,52.60
2022-08-18T01:22:53.081Z,50.70
2022-08-18T01:23:53.054Z,51.20
2022-08-18T01:24:53.039Z,53.20
2022-08-18T01:25:53.031Z,54.70
2022-08-18T01:26:53.011Z,55.00
2022-08-18T01:27:53.205Z,54.10
2022-08-18T01:28:53.021Z,53.20
2022-08-18T01:29:52.986Z,48.40
2022-08-18T01:30:52.986Z,53.10
2022-08-18T01:31:54.620Z,53.70
2022-08-18T01:32:52.950Z,52.60
2022-08-18T01:33:52.962Z,52.30
2022-08-18T01:34:52.926Z,53.00
2022-08-18T01:35:52.911Z,54.00
2022-08-18T01:36:52.973Z,53.40
2022-08-18T01:37:53.041Z,54.10
2022-08-18T01:38:52.916Z,53.20
2022-08-18T01:41:22.676Z,53.20
2022-08-18T01:41:23.964Z,52.30
2022-08-18T01:41:52.883Z,52.20
2022-08-18T01:42:52.844Z,53.10
2022-08-18T01:43:52.848Z,52.20
2022-08-18T01:44:52.823Z,52.00
2022-08-18T01:45:52.804Z,52.10
2022-08-18T01:46:52.798Z,52.90
2022-08-18T01:47:52.786Z,52.20
2022-08-18T01:48:52.801Z,51.80
2022-08-18T01:49:52.758Z,50.10
2022-08-18T01:50:52.756Z,51.50
2022-08-18T01:51:52.736Z,51.40
2022-08-18T01:52:52.746Z,52.70
2022-08-18T01:53:52.744Z,54.70
2022-08-18T01:54:52.712Z,53.00
2022-08-18T01:55:52.690Z,51.70
2022-08-18T01:56:52.685Z,53.60
2022-08-18T01:57:53.030Z,54.10
2022-08-18T01:58:52.685Z,52.80
2022-08-18T01:59:52.671Z,55.20
2022-08-18T02:00:52.654Z,52.90
2022-08-18T02:01:53.326Z,54.00
2022-08-18T02:02:57.990Z,54.90
2022-08-18T02:03:52.630Z,56.10
2022-08-18T02:04:52.605Z,57.80
2022-08-18T02:05:52.584Z,56.00
2022-08-18T02:06:52.578Z,55.50
2022-08-18T02:07:54.072Z,52.70
2022-08-18T02:08:53.790Z,53.90
2022-08-18T02:09:52.549Z,56.70
2022-08-18T02:10:52.556Z,54.60
2022-08-18T02:11:56.079Z,55.30
2022-08-18T02:12:52.544Z,56.50
2022-08-18T02:13:52.524Z,58.00
2022-08-18T02:14:52.491Z,57.00
2022-08-18T02:15:52.468Z,57.60
2022-08-18T02:16:52.466Z,59.80
2022-08-18T02:17:52.757Z,58.00
2022-08-18T02:18:52.450Z,59.70
2022-08-18T02:19:52.430Z,59.60
2022-08-18T02:20:52.420Z,59.80
2022-08-18T02:21:52.412Z,58.60
2022-08-18T02:22:52.427Z,59.20
2022-08-18T02:23:53.879Z,59.80
2022-08-18T02:24:52.375Z,62.30
2022-08-18T02:25:52.357Z,58.90
2022-08-18T02:26:52.376Z,61.90
2022-08-18T02:27:52.601Z,62.70
2022-08-18T02:28:52.334Z,61.00
2022-08-18T02:29:52.318Z,61.60
2022-08-18T02:30:52.301Z,61.80
2022-08-18T02:31:52.322Z,62.20
2022-08-18T02:32:52.316Z,64.10
2022-08-18T02:33:52.791Z,65.50
2022-08-18T02:34:52.272Z,62.50
2022-08-18T02:35:52.251Z,63.40
2022-08-18T02:36:52.267Z,64.30
2022-08-18T02:37:52.349Z,64.40
2022-08-18T02:38:58.694Z,63.50
2022-08-18T02:39:52.287Z,60.60
2022-08-18T02:40:52.204Z,61.10
2022-08-18T02:41:52.210Z,62.10
2022-08-18T02:42:52.177Z,64.00
2022-08-18T02:43:52.165Z,61.80
2022-08-18T02:44:52.163Z,61.50
2022-08-18T02:45:52.166Z,63.50
2022-08-18T02:46:52.128Z,66.80
2022-08-18T02:47:52.381Z,65.00
2022-08-18T02:50:01.105Z,61.10
2022-08-18T02:51:02.095Z,67.80
2022-08-18T02:52:02.098Z,68.40
2022-08-18T02:53:02.053Z,68.40
2022-08-18T02:54:02.039Z,66.90
2022-08-18T02:55:02.030Z,65.80
2022-08-18T02:56:02.016Z,65.20
2022-08-18T02:57:01.992Z,64.70
2022-08-18T02:58:02.017Z,65.40
2022-08-18T02:59:02.028Z,65.90
2022-08-18T03:00:02.055Z,62.90
2022-08-18T03:01:02.046Z,65.40
2022-08-18T03:02:01.942Z,62.50
2022-08-18T03:03:01.938Z,64.20
2022-08-18T03:04:01.932Z,66.40
2022-08-18T03:05:01.913Z,65.30
2022-08-18T03:06:01.891Z,67.20
2022-08-18T03:07:01.900Z,64.90
2022-08-18T03:08:01.869Z,66.90
2022-08-18T03:09:01.860Z,63.90
2022-08-18T03:10:31.852Z,64.00
2022-08-18T03:11:01.842Z,64.50
2022-08-18T03:12:01.857Z,62.40
2022-08-18T03:13:01.841Z,63.20
2022-08-18T03:14:01.829Z,63.80
2022-08-18T03:15:01.800Z,62.30
2022-08-18T03:16:01.790Z,65.30
2022-08-18T03:17:01.769Z,63.80
2022-08-18T03:18:01.797Z,62.90
2022-08-18T03:19:01.759Z,63.80
2022-08-18T03:20:01.735Z,62.40
2022-08-18T03:21:01.731Z,65.90
2022-08-18T03:22:02.889Z,65.20
2022-08-18T03:23:05.649Z,66.90
2022-08-18T03:24:02.745Z,65.80
2022-08-18T03:25:01.721Z,65.90
2022-08-18T03:26:01.675Z,63.00
2022-08-18T03:27:01.780Z,68.10
2022-08-18T03:28:01.651Z,65.40
2022-08-18T03:29:01.634Z,67.90
2022-08-18T03:30:01.658Z,64.50
2022-08-18T03:31:01.638Z,69.40
2022-08-18T03:32:01.601Z,70.20
2022-08-18T03:33:01.601Z,72.10
2022-08-18T03:34:01.638Z,67.70
2022-08-18T03:35:01.598Z,68.70
2022-08-18T03:36:01.570Z,70.40
2022-08-18T03:37:01.561Z,71.30
2022-08-18T03:38:01.553Z,70.60
2022-08-18T03:39:01.532Z,72.30
2022-08-18T03:40:01.685Z,72.20
2022-08-18T03:41:01.514Z,71.70
2022-08-18T03:42:02.195Z,70.30
2022-08-18T03:43:02.215Z,71.90
2022-08-18T03:44:01.468Z,72.10
2022-08-18T03:45:12.481Z,72.10
2022-08-18T03:46:01.459Z,75.30
2022-08-18T03:47:01.458Z,74.30
2022-08-18T03:48:01.439Z,73.10
2022-08-18T03:49:01.410Z,74.50
2022-08-18T03:50:01.425Z,75.70
2022-08-18T03:51:05.181Z,73.40
2022-08-18T03:52:01.610Z,72.20
2022-08-18T03:53:01.386Z,73.40
2022-08-18T03:54:01.363Z,74.10
2022-08-18T03:55:02.804Z,76.70
2022-08-18T03:56:01.346Z,73.50
2022-08-18T03:57:01.331Z,78.30
2022-08-18T03:58:01.318Z,74.70
2022-08-18T03:59:01.305Z,75.30
2022-08-18T04:00:01.313Z,75.60
2022-08-18T04:01:01.334Z,77.00
2022-08-18T04:02:01.294Z,74.60
2022-08-18T04:03:01.264Z,76.00
2022-08-18T04:04:01.275Z,80.20
2022-08-18T04:05:01.263Z,82.70
2022-08-18T04:06:01.234Z,83.70
2022-08-18T04:07:01.221Z,81.70
2022-08-18T04:08:01.207Z,79.20
2022-08-18T04:09:01.203Z,83.40
2022-08-18T04:10:01.221Z,83.00
2022-08-18T04:11:01.569Z,82.30
2022-08-18T04:12:01.161Z,81.80
2022-08-18T04:13:01.165Z,83.60
2022-08-18T04:14:02.460Z,82.50
2022-08-18T04:15:01.162Z,81.80
2022-08-18T04:16:01.121Z,80.80
2022-08-18T04:17:01.115Z,78.90
2022-08-18T04:18:04.089Z,80.80
2022-08-18T04:19:01.077Z,80.60
2022-08-18T04:20:01.091Z,75.80
2022-08-18T04:21:01.061Z,81.10
2022-08-18T04:22:01.048Z,80.10
2022-08-18T04:23:01.035Z,80.40
2022-08-18T04:24:01.020Z,78.60
2022-08-18T04:25:01.008Z,80.90
2022-08-18T04:26:01.010Z,79.60
2022-08-18T04:27:00.996Z,78.90
2022-08-18T04:28:00.979Z,79.70
2022-08-18T04:29:00.966Z,76.10
2022-08-18T04:30:00.958Z,75.80
2022-08-18T04:31:00.960Z,76.80
2022-08-18T04:32:00.930Z,76.80
2022-08-18T04:33:00.923Z,75.80
2022-08-18T04:34:00.920Z,75.40
2022-08-18T04:35:02.974Z,75.10
2022-08-18T04:36:00.899Z,78.50
2022-08-18T04:37:00.921Z,75.80
2022-08-18T04:38:00.870Z,78.20
2022-08-18T04:39:00.853Z,77.60
2022-08-18T04:40:00.927Z,77.10
2022-08-18T04:41:00.830Z,78.10
2022-08-18T04:42:00.849Z,77.80
2022-08-18T04:43:00.816Z,78.30
2022-08-18T04:44:00.817Z,78.90
2022-08-18T04:45:00.786Z,78.80
2022-08-18T04:46:00.803Z,78.00
2022-08-18T04:47:00.792Z,77.30
2022-08-18T04:48:00.788Z,76.50
2022-08-18T04:49:00.756Z,76.00
2022-08-18T04:52:36.333Z,69.80
2022-08-18T04:52:54.453Z,78.00
2022-08-18T04:53:54.440Z,77.80
2022-08-18T04:54:54.424Z,76.80
2022-08-18T04:55:54.412Z,78.10
2022-08-18T04:56:54.397Z,81.00
2022-08-18T04:57:54.413Z,79.60
2022-08-18T04:58:54.374Z,79.20
2022-08-18T04:59:54.368Z,81.80
2022-08-18T05:00:54.427Z,83.10
2022-08-18T05:01:54.353Z,82.90
2022-08-18T05:02:54.365Z,82.00
2022-08-18T05:03:54.323Z,80.80
2022-08-18T05:04:54.317Z,83.70
2022-08-18T05:05:54.305Z,82.30
2022-08-18T05:06:54.291Z,82.30
2022-08-18T05:07:54.409Z,80.60
2022-08-18T05:08:54.276Z,79.70
2022-08-18T05:09:54.257Z,78.20
2022-08-18T05:10:54.248Z,78.00
2022-08-18T05:11:54.239Z,76.30
2022-08-18T05:12:54.252Z,75.60
2022-08-18T05:13:54.234Z,74.40
2022-08-18T05:14:54.210Z,75.40
2022-08-18T05:16:10.074Z,73.50
2022-08-18T05:16:54.182Z,77.10
2022-08-18T05:17:54.416Z,77.60
2022-08-18T05:18:54.158Z,77.20
2022-08-18T05:19:54.151Z,78.10
2022-08-18T05:20:54.181Z,73.50
2022-08-18T05:21:54.139Z,71.60
2022-08-18T05:22:54.139Z,68.70
2022-08-18T05:23:54.098Z,68.10
2022-08-18T05:24:54.088Z,66.80
2022-08-18T05:25:54.087Z,65.30
2022-08-18T05:26:54.068Z,63.90
2022-08-18T05:27:54.152Z,64.00
2022-08-18T05:29:04.260Z,64.70
2022-08-18T05:29:54.041Z,63.70
2022-08-18T05:30:54.060Z,65.70
2022-08-18T05:31:54.013Z,65.60
2022-08-18T05:32:54.019Z,64.70
2022-08-18T05:33:54.014Z,62.10
2022-08-18T05:34:53.976Z,62.00
2022-08-18T05:35:53.966Z,64.20
2022-08-18T05:36:53.955Z,64.60
2022-08-18T05:37:54.077Z,65.20
2022-08-18T05:38:53.935Z,66.80
2022-08-18T05:39:53.974Z,63.70
2022-08-18T05:40:53.909Z,64.20
2022-08-18T05:41:53.906Z,63.30
2022-08-18T05:42:53.882Z,64.00
2022-08-18T05:43:53.949Z,66.30
2022-08-18T05:44:53.874Z,63.20
2022-08-18T05:45:53.876Z,62.90
2022-08-18T05:46:53.911Z,65.00
2022-08-18T05:47:53.926Z,65.70
2022-08-18T05:48:53.843Z,68.00
2022-08-18T05:49:53.808Z,64.90
2022-08-18T05:50:53.835Z,65.70
2022-08-18T05:51:53.783Z,66.50
2022-08-18T05:52:53.776Z,66.40
2022-08-18T05:53:53.797Z,64.80
2022-08-18T05:54:53.770Z,65.80
2022-08-18T05:55:53.799Z,66.10
2022-08-18T05:56:53.845Z,62.90
2022-08-18T05:57:53.907Z,62.30
2022-08-18T05:58:53.727Z,62.00
2022-08-18T05:59:53.744Z,62.80
2022-08-18T06:00:57.467Z,61.70
2022-08-18T06:01:53.729Z,62.00
2022-08-18T06:02:53.727Z,59.30
2022-08-18T06:03:53.684Z,58.60
2022-08-18T06:04:53.645Z,60.70
2022-08-18T06:06:14.192Z,59.70
2022-08-18T06:07:02.008Z,59.20
2022-08-18T06:08:18.561Z,59.20
2022-08-18T06:12:37.255Z,58.30
2022-08-18T06:13:02.057Z,59.90
2022-08-18T06:13:02.085Z,51.80
2022-08-18T06:14:03.065Z,56.30
2022-08-18T06:15:06.333Z,57.70
2022-08-18T06:16:03.009Z,56.80
2022-08-18T06:17:03.007Z,59.40
2022-08-18T06:18:03.010Z,58.80
2022-08-18T06:19:02.967Z,55.50
2022-08-18T06:20:02.959Z,55.60
2022-08-18T06:21:02.943Z,54.80
2022-08-18T06:22:02.940Z,53.50
2022-08-18T06:23:02.966Z,55.80
2022-08-18T06:24:02.931Z,55.50
2022-08-18T06:25:03.285Z,56.10
2022-08-18T06:26:02.928Z,54.00
2022-08-18T06:27:02.901Z,55.50
2022-08-18T06:28:02.900Z,54.50
2022-08-18T06:29:03.133Z,54.60
2022-08-18T06:30:02.884Z,53.60
2022-08-18T06:31:02.928Z,53.90
2022-08-18T06:32:02.833Z,51.80
2022-08-18T06:33:02.839Z,52.90
2022-08-18T06:34:02.885Z,52.00
2022-08-18T06:35:02.911Z,53.50
2022-08-18T06:36:02.794Z,51.90
2022-08-18T06:37:02.770Z,53.50
2022-08-18T06:38:02.810Z,52.40
2022-08-18T06:39:02.759Z,51.60
2022-08-18T06:40:02.880Z,52.60
2022-08-18T06:41:02.737Z,52.10
2022-08-18T06:42:02.717Z,52.30
2022-08-18T06:43:02.767Z,51.10
2022-08-18T06:44:02.697Z,51.10
2022-08-18T06:45:02.688Z,48.70
2022-08-18T06:46:02.690Z,53.20
2022-08-18T06:47:02.834Z,53.00
2022-08-18T06:48:02.721Z,53.70
2022-08-18T06:49:02.713Z,53.60
2022-08-18T06:50:02.647Z,50.90
2022-08-18T06:51:02.662Z,51.60
2022-08-18T06:52:02.681Z,51.90
2022-08-18T06:53:02.635Z,50.20
2022-08-18T06:54:02.599Z,50.00
2022-08-18T06:55:02.575Z,47.20
2022-08-18T06:56:02.631Z,48.90
2022-08-18T06:58:51.207Z,46.10
2022-08-18T07:01:41.118Z,42.00
2022-08-18T07:10:22.635Z,42.20
2022-08-18T07:10:49.299Z,39.80
2022-08-18T07:10:53.397Z,41.90
2022-08-18T07:10:55.443Z,42.40
2022-08-18T07:14:17.581Z,37.80
2022-08-18T07:22:39.211Z,37.60
2022-08-18T07:22:39.566Z,37.90
2022-08-18T07:23:00.440Z,37.90
2022-08-18T07:23:18.302Z,35.40
2022-08-18T07:24:21.168Z,37.90
2022-08-18T07:24:25.695Z,39.20
2022-08-18T07:25:18.270Z,38.20
2022-08-18T07:26:18.274Z,37.20
2022-08-18T07:27:18.254Z,38.60
2022-08-18T07:28:18.294Z,36.60
2022-08-18T07:29:18.236Z,38.00
2022-08-18T07:30:18.231Z,38.60
2022-08-18T07:31:18.196Z,38.00
2022-08-18T07:32:20.953Z,37.50
2022-08-18T07:33:18.211Z,37.60
2022-08-18T07:34:18.197Z,38.60
2022-08-18T07:35:18.161Z,37.80
2022-08-18T07:36:18.273Z,40.80
2022-08-18T07:37:18.136Z,40.20
2022-08-18T07:38:41.350Z,40.30
2022-08-18T07:39:18.142Z,39.60
2022-08-18T07:40:18.152Z,41.10
2022-08-18T07:41:18.090Z,41.60
2022-08-18T07:42:54.093Z,41.50
2022-08-18T07:43:18.100Z,43.50
2022-08-18T07:44:18.059Z,43.00
2022-08-18T07:45:18.049Z,43.00
2022-08-18T07:46:18.039Z,43.80
2022-08-18T07:47:18.027Z,43.00
2022-08-18T07:48:37.525Z,42.10
2022-08-18T07:49:21.841Z,46.40
2022-08-18T07:50:36.281Z,45.90
2022-08-18T07:51:17.986Z,44.10
2022-08-18T07:52:36.368Z,45.00
2022-08-18T07:53:17.991Z,47.60
2022-08-18T07:54:45.472Z,47.20
2022-08-18T07:55:18.436Z,47.80
2022-08-18T07:57:24.990Z,47.00
2022-08-18T08:02:27.523Z,48.80
2022-08-18T08:03:54.509Z,48.50
2022-08-18T08:04:06.229Z,48.40
2022-08-18T08:04:25.655Z,49.50
2022-08-18T08:04:57.421Z,46.60
2022-08-18T08:07:49.113Z,42.10
2022-08-18T08:09:21.658Z,50.10
2022-08-18T08:13:09.351Z,43.60
2022-08-18T08:19:11.222Z,49.30
2022-08-18T08:19:17.604Z,49.30
2022-08-18T08:20:02.852Z,48.10
2022-08-18T23:09:12.502Z,4.20
2022-08-18T23:10:13.909Z,5.50
2022-08-18T23:11:13.165Z,5.50
2022-08-18T23:12:13.158Z,5.60
2022-08-18T23:13:13.157Z,5.70
2022-08-18T23:14:13.184Z,5.90
2022-08-18T23:15:13.120Z,6.00
2022-08-18T23:16:30.515Z,5.40
2022-08-18T23:17:13.101Z,5.90
2022-08-18T23:18:13.085Z,6.40
2022-08-18T23:19:13.106Z,5.40
2022-08-18T23:20:17.815Z,5.60
2022-08-18T23:21:13.058Z,6.10
2022-08-18T23:22:13.042Z,5.50
2022-08-18T23:23:13.046Z,5.70
2022-08-18T23:24:13.020Z,5.90
2022-08-18T23:25:13.050Z,5.80
2022-08-18T23:26:13.017Z,5.90
2022-08-18T23:27:12.995Z,5.90
2022-08-18T23:28:12.975Z,5.90
2022-08-18T23:29:12.962Z,5.60
2022-08-18T23:30:12.967Z,5.50
2022-08-18T23:31:12.947Z,6.30
2022-08-18T23:32:12.957Z,6.20
2022-08-18T23:33:12.923Z,5.50
2022-08-18T23:34:12.911Z,6.00
2022-08-18T23:35:12.902Z,5.90
2022-08-18T23:36:12.899Z,6.10
2022-08-18T23:37:12.905Z,5.90
2022-08-18T23:38:12.976Z,6.00
2022-08-18T23:39:12.856Z,6.40
2022-08-18T23:40:12.924Z,6.00
2022-08-18T23:41:12.845Z,5.90
2022-08-18T23:42:12.874Z,6.20
2022-08-18T23:43:12.815Z,6.10
2022-08-18T23:44:12.800Z,5.90
2022-08-18T23:45:12.788Z,5.50
2022-08-18T23:46:12.778Z,5.30
2022-08-18T23:47:12.793Z,5.90
2022-08-18T23:48:12.757Z,6.30
2022-08-18T23:49:12.745Z,6.30
2022-08-18T23:50:12.738Z,6.40
2022-08-18T23:51:12.721Z,6.40
2022-08-18T23:52:12.731Z,6.50
2022-08-18T23:53:12.698Z,5.80
2022-08-18T23:54:12.688Z,6.10
2022-08-18T23:55:12.678Z,6.50
2022-08-18T23:56:12.673Z,6.10
2022-08-18T23:57:12.687Z,6.20
2022-08-18T23:58:12.647Z,6.20
2022-08-18T23:59:12.640Z,6.20
